Time;durP1;ratioP1;P1;durP2;ratioP2;P2;SDS_P1;SDS_P2;PMS_P1;PMS_P2;Temp;Humidity;BMP_temperature;BMP_pressure;BME280_temperature;BME280_humidity;BME280_pressure;Samples;Min_cycle;Max_cycle;Signal;HPM_P1;HPM_P2
2023/10/11 00:03:05;;;;;;;6.70;5.90;;;;;;;17.62;46.79;98714.82;105463;1262;75748;-39
2023/10/11 00:05:36;;;;;;;8.40;6.20;;;;;;;17.61;46.74;98718.15;105327;1262;65081;-39
2023/10/11 00:08:05;;;;;;;7.60;5.70;;;;;;;17.61;46.83;98714.58;105550;1259;72445;-39
2023/10/11 00:10:32;;;;;;;6.60;5.70;;;;;;;17.61;46.80;98713.79;105209;1262;61930;-39
2023/10/11 00:12:59;;;;;;;8.00;6.30;;;;;;;17.60;46.74;98716.77;105108;1258;62140;-42
2023/10/11 00:15:29;;;;;;;8.30;5.80;;;;;;;17.60;46.77;98712.27;104997;1260;74257;-40
2023/10/11 00:17:56;;;;;;;7.00;6.00;;;;;;;17.60;46.73;98714.02;105505;1259;66377;-39
2023/10/11 00:20:35;;;;;;;7.10;6.40;;;;;;;17.59;46.80;98715.92;105239;1259;72617;-39
2023/10/11 00:23:03;;;;;;;6.70;5.70;;;;;;;17.59;46.78;98711.27;105460;1262;62190;-39
2023/10/11 00:25:30;;;;;;;10.40;5.80;;;;;;;17.59;46.78;98702.61;105288;1259;62172;-39
2023/10/11 00:27:58;;;;;;;6.60;5.60;;;;;;;17.58;46.74;98698.03;105278;1262;75515;-39
2023/10/11 00:30:26;;;;;;;6.60;5.90;;;;;;;17.58;46.76;98695.45;105189;1259;66222;-39
2023/10/11 00:32:53;;;;;;;6.80;5.90;;;;;;;17.58;46.71;98702.33;105751;1262;71200;-39
2023/10/11 00:35:24;;;;;;;7.10;5.90;;;;;;;17.57;46.72;98704.94;105329;1262;62073;-39
2023/10/11 00:37:52;;;;;;;6.40;5.60;;;;;;;17.57;46.75;98700.13;105918;1259;62149;-39
2023/10/11 00:40:27;;;;;;;6.90;5.60;;;;;;;17.56;46.75;98691.83;105553;1262;75173;-39
2023/10/11 00:42:55;;;;;;;7.40;5.40;;;;;;;17.57;46.65;98687.73;105831;1259;65918;-39
2023/10/11 00:45:25;;;;;;;8.30;5.90;;;;;;;17.56;46.68;98688.48;105396;1259;72645;-39
2023/10/11 00:47:53;;;;;;;7.20;5.80;;;;;;;17.56;46.71;98699.14;105668;1262;62009;-39
2023/10/11 00:50:21;;;;;;;6.40;5.80;;;;;;;17.56;46.71;98701.15;105454;1258;62163;-39
2023/10/11 00:52:50;;;;;;;7.10;5.80;;;;;;;17.55;46.69;98696.23;105787;1263;75422;-41
2023/10/11 00:55:18;;;;;;;6.80;5.80;;;;;;;17.55;46.71;98690.06;105479;1259;66002;-44
2023/10/11 00:57:47;;;;;;;8.40;6.00;;;;;;;17.55;46.67;98686.33;105233;1259;72679;-41
2023/10/11 01:00:16;;;;;;;7.20;6.00;;;;;;;17.54;46.71;98682.30;105225;1264;62120;-43
2023/10/11 01:02:46;;;;;;;7.10;5.70;;;;;;;17.54;46.65;98679.81;105509;1262;62198;-43
2023/10/11 01:05:17;;;;;;;8.10;5.70;;;;;;;17.54;46.72;98677.33;105501;1260;75122;-39
2023/10/11 01:07:46;;;;;;;6.70;5.70;;;;;;;17.53;46.66;98671.11;105430;1259;66224;-42
2023/10/11 01:10:13;;;;;;;9.00;6.00;;;;;;;17.53;46.71;98666.13;105406;1259;72702;-39
2023/10/11 01:12:40;;;;;;;6.90;5.80;;;;;;;17.53;46.69;98665.11;105256;1262;62070;-40
2023/10/11 01:15:11;;;;;;;6.60;5.50;;;;;;;17.53;46.64;98666.51;105304;1260;62192;-40
2023/10/11 01:17:39;;;;;;;6.30;5.50;;;;;;;17.52;46.63;98667.23;105487;1262;75354;-39
2023/10/11 01:20:13;;;;;;;6.00;5.20;;;;;;;17.52;46.66;98668.94;105475;1262;65194;-39
2023/10/11 01:22:41;;;;;;;6.30;5.60;;;;;;;17.52;46.66;98669.70;105435;1262;72626;-40
2023/10/11 01:25:12;;;;;;;6.20;5.30;;;;;;;17.51;46.69;98670.84;105261;1262;62061;-40
2023/10/11 01:27:40;;;;;;;6.80;5.20;;;;;;;17.51;46.68;98675.23;105469;1259;62121;-39
2023/10/11 01:30:09;;;;;;;6.30;5.30;;;;;;;17.51;46.65;98679.20;105304;1260;75384;-39
2023/10/11 01:32:38;;;;;;;7.80;5.70;;;;;;;17.51;46.71;98682.76;105208;1264;66288;-40
2023/10/11 01:35:05;;;;;;;6.10;5.40;;;;;;;17.51;46.71;98687.53;105467;1259;71426;-39
2023/10/11 01:37:41;;;;;;;6.10;5.40;;;;;;;17.50;46.70;98686.34;105496;1262;62086;-40
2023/10/11 01:40:20;;;;;;;7.00;5.60;;;;;;;17.49;46.61;98682.05;105432;1259;62298;-39
2023/10/11 01:42:51;;;;;;;5.70;5.10;;;;;;;17.49;46.67;98681.17;105960;1262;75465;-39
2023/10/11 01:45:24;;;;;;;7.40;5.90;;;;;;;17.49;46.66;98681.56;105482;1262;65355;-39
2023/10/11 01:47:53;;;;;;;6.70;5.40;;;;;;;17.49;46.63;98682.96;105879;1262;72406;-40
2023/10/11 01:50:20;;;;;;;6.50;5.70;;;;;;;17.48;46.62;98684.39;105351;1262;62128;-39
2023/10/11 01:52:47;;;;;;;6.70;5.50;;;;;;;17.48;46.61;98685.31;105574;1259;62069;-39
2023/10/11 01:55:15;;;;;;;6.70;5.60;;;;;;;17.48;46.67;98679.26;105065;1262;75450;-41
2023/10/11 01:57:45;;;;;;;6.30;5.50;;;;;;;17.48;46.61;98676.30;105123;1260;65644;-39
2023/10/11 02:00:13;;;;;;;8.00;5.40;;;;;;;17.48;46.62;98684.19;105174;1260;72681;-40
2023/10/11 02:02:47;;;;;;;6.10;5.30;;;;;;;17.47;46.59;98681.78;105069;1263;62155;-41
2023/10/11 02:05:15;;;;;;;6.00;5.10;;;;;;;17.47;46.60;98681.46;105260;1259;62170;-39
2023/10/11 02:07:42;;;;;;;5.70;5.20;;;;;;;17.46;46.62;98682.02;105500;1259;75449;-39
2023/10/11 02:10:12;;;;;;;6.70;5.70;;;;;;;17.46;46.58;98687.66;105466;1259;66255;-39
2023/10/11 02:12:45;;;;;;;6.40;5.40;;;;;;;17.46;46.63;98688.59;105428;1259;73123;-39
2023/10/11 02:15:21;;;;;;;6.40;5.10;;;;;;;17.46;46.62;98686.48;105268;1265;62145;-39
2023/10/11 02:17:51;;;;;;;7.00;5.20;;;;;;;17.45;46.59;98677.50;105945;1258;62060;-39
2023/10/11 02:20:22;;;;;;;6.00;5.20;;;;;;;17.45;46.60;98665.02;105440;1259;75480;-39
2023/10/11 02:22:51;;;;;;;6.20;5.30;;;;;;;17.44;46.62;98665.63;105784;1262;66728;-39
2023/10/11 02:25:19;;;;;;;5.60;5.00;;;;;;;17.44;46.60;98675.44;105325;1259;73670;-39
2023/10/11 02:27:49;;;;;;;6.50;5.70;;;;;;;17.44;46.62;98678.84;105974;1259;62104;-39
2023/10/11 02:30:26;;;;;;;6.10;5.00;;;;;;;17.44;46.57;98687.80;105489;1259;62054;-38
2023/10/11 02:33:00;;;;;;;7.30;5.30;;;;;;;17.43;46.63;98686.84;105883;1259;75492;-41
2023/10/11 02:35:27;;;;;;;5.20;4.50;;;;;;;17.43;46.62;98688.24;105438;1262;66019;-41
2023/10/11 02:37:59;;;;;;;6.10;5.20;;;;;;;17.42;46.59;98686.11;105551;1259;72404;-39
2023/10/11 02:40:29;;;;;;;6.90;5.00;;;;;;;17.42;46.56;98684.70;105392;1262;62075;-39
2023/10/11 02:42:57;;;;;;;7.20;5.50;;;;;;;17.42;46.61;98684.48;105742;1258;62065;-39
2023/10/11 02:45:24;;;;;;;5.50;4.90;;;;;;;17.41;46.49;98685.59;105384;1262;75839;-39
2023/10/11 02:47:59;;;;;;;5.50;4.90;;;;;;;17.41;46.57;98684.20;105579;1259;65575;-41
2023/10/11 02:50:26;;;;;;;7.10;5.10;;;;;;;17.41;46.60;98685.59;105096;1262;72467;-39
2023/10/11 02:53:05;;;;;;;6.60;5.00;;;;;;;17.41;46.67;98681.02;105413;1262;62067;-39
2023/10/11 02:55:38;;;;;;;7.30;5.30;;;;;;;17.40;46.57;98684.70;105378;1259;62073;-40
2023/10/11 02:58:08;;;;;;;5.90;4.80;;;;;;;17.40;46.58;98678.05;105357;1258;75131;-41
2023/10/11 03:00:36;;;;;;;7.70;5.20;;;;;;;17.40;46.55;98680.29;105451;1259;66040;-39
2023/10/11 03:03:08;;;;;;;5.80;5.10;;;;;;;17.39;46.59;98672.66;105573;1259;72455;-40
2023/10/11 03:05:37;;;;;;;5.80;5.20;;;;;;;17.39;46.55;98675.85;105434;1262;62179;-39
2023/10/11 03:08:15;;;;;;;6.70;5.00;;;;;;;17.39;46.54;98670.81;105367;1259;62235;-39
2023/10/11 03:10:44;;;;;;;6.90;5.00;;;;;;;17.39;46.49;98668.39;105441;1262;75241;-39
2023/10/11 03:13:19;;;;;;;6.30;4.90;;;;;;;17.38;46.54;98666.09;105515;1259;66280;-39
2023/10/11 03:15:54;;;;;;;7.00;5.10;;;;;;;17.38;46.60;98659.91;105386;1259;73052;-39
2023/10/11 03:18:24;;;;;;;;;;;;;;;17.38;46.52;98659.60;105463;1262;62086;-39
2023/10/11 03:21:08;;;;;;;5.50;4.80;;;;;;;17.37;46.61;98657.30;105424;1260;62175;-40
2023/10/11 03:23:45;;;;;;;6.40;5.10;;;;;;;17.36;46.58;98658.59;105396;1262;75339;-39
2023/10/11 03:26:31;;;;;;;7.00;5.00;;;;;;;17.36;46.51;98661.52;105392;1260;65964;-39
2023/10/11 03:29:05;;;;;;;6.40;5.10;;;;;;;17.35;46.56;98661.58;105427;1260;72583;-39
2023/10/11 03:31:34;;;;;;;5.10;4.60;;;;;;;17.34;46.47;98659.05;105417;1259;62118;-39
2023/10/11 03:34:11;;;;;;;5.60;4.80;;;;;;;17.34;46.55;98656.35;105516;1259;62179;-39
2023/10/11 03:36:59;;;;;;;5.60;5.00;;;;;;;17.34;46.54;98653.16;105445;1260;75686;-40
2023/10/11 03:44:44;;;;;;;6.00;4.70;;;;;;;17.33;46.49;98639.79;105306;1259;62022;-45
2023/10/11 03:47:24;;;;;;;6.80;4.80;;;;;;;17.33;46.47;98634.15;105455;1259;62073;-42
2023/10/11 03:49:52;;;;;;;5.10;4.70;;;;;;;17.32;46.58;98633.34;105479;1260;75492;-40
2023/10/11 03:54:47;;;;;;;5.70;5.00;;;;;;;17.32;46.54;98629.78;105392;1259;72071;-39
2023/10/11 03:57:17;;;;;;;6.20;4.90;;;;;;;17.32;46.53;98630.01;105239;1262;62788;-40
2023/10/11 03:59:48;;;;;;;5.20;4.70;;;;;;;17.32;46.46;98632.55;105342;1260;62176;-39
2023/10/11 04:02:17;;;;;;;5.70;4.80;;;;;;;17.31;46.52;98631.84;105098;1261;75171;-42
2023/10/11 04:04:48;;;;;;;5.30;4.60;;;;;;;17.32;46.53;98627.99;105264;1262;65535;-40
2023/10/11 04:07:17;;;;;;;6.20;4.60;;;;;;;17.31;46.38;98627.80;105358;1259;72641;-40
2023/10/11 04:09:47;;;;;;;5.30;4.70;;;;;;;17.31;46.50;98619.75;105444;1259;62191;-39
2023/10/11 04:12:15;;;;;;;6.90;4.40;;;;;;;17.31;46.53;98622.62;105223;1260;62409;-40
2023/10/11 04:14:44;;;;;;;5.80;4.80;;;;;;;17.31;46.47;98619.83;105092;1261;75417;-39
2023/10/11 04:19:50;;;;;;;5.00;4.30;;;;;;;17.30;46.47;98630.02;105089;1260;72682;-40
2023/10/11 04:22:23;;;;;;;5.20;4.70;;;;;;;17.30;46.50;98620.80;105101;1262;62210;-40
2023/10/11 04:24:53;;;;;;;6.00;5.00;;;;;;;17.30;46.48;98618.91;105125;1259;62068;-42
2023/10/11 04:29:55;;;;;;;7.00;4.80;;;;;;;17.29;46.48;98616.98;105133;1263;66283;-41
2023/10/11 04:35:21;;;;;;;5.60;4.60;;;;;;;17.29;46.50;98614.02;105226;1262;62108;-41
2023/10/11 04:38:01;;;;;;;5.20;4.70;;;;;;;17.29;46.43;98614.94;105746;1259;61952;-39
2023/10/11 04:45:51;;;;;;;5.80;4.90;;;;;;;17.28;46.47;98610.91;106068;1262;72156;-39
2023/10/11 04:48:30;;;;;;;4.90;4.30;;;;;;;17.28;46.45;98607.27;105376;1262;62069;-39
2023/10/11 04:51:07;;;;;;;4.90;4.30;;;;;;;17.29;46.55;98611.70;105286;1259;62130;-41
2023/10/11 04:53:46;;;;;;;5.20;4.40;;;;;;;17.29;46.42;98608.99;105269;1259;75215;-39
2023/10/11 04:59:06;;;;;;;5.20;4.20;;;;;;;17.29;46.42;98616.48;105056;1259;72625;-40
2023/10/11 05:02:24;;;;;;;5.50;4.30;;;;;;;17.28;46.28;98616.16;104912;1262;62024;-40
2023/10/11 05:04:28;;;;;;;4.60;4.10;;;;;;;17.28;46.44;98617.08;105125;1259;62088;-40
2023/10/11 05:06:56;;;;;;;5.50;4.40;;;;;;;17.28;46.54;98616.75;104715;1260;74093;-40
2023/10/11 05:09:37;;;;;;;7.50;4.30;;;;;;;17.28;46.61;98615.93;105010;1262;66313;-40
2023/10/11 05:12:12;;;;;;;5.60;4.70;;;;;;;17.29;46.66;98609.07;104798;1259;72744;-41
2023/10/11 05:27:57;;;;;;;10.50;4.30;;;;;;;17.37;47.66;98612.69;105403;1262;62058;-41
2023/10/11 05:33:30;;;;;;;10.50;4.20;;;;;;;17.40;47.86;98614.52;105002;1262;75190;-41
2023/10/11 05:52:14;;;;;;;7.80;4.60;;;;;;;17.52;48.44;98608.11;104982;1259;72592;-42
2023/10/11 05:54:42;;;;;;;6.30;4.70;;;;;;;17.53;48.52;98607.73;104981;1259;62104;-41
2023/10/11 05:57:13;;;;;;;12.50;4.20;;;;;;;17.55;48.57;98612.36;105067;1262;61974;-42
2023/10/11 05:59:47;;;;;;;9.30;4.20;;;;;;;17.57;48.58;98613.20;105167;1262;75544;-41
2023/10/11 06:02:18;;;;;;;11.80;4.60;;;;;;;17.58;48.61;98618.74;104895;1262;64931;-42
2023/10/11 06:04:47;;;;;;;8.80;4.40;;;;;;;17.59;48.62;98619.66;105090;1262;72783;-41
2023/10/11 06:07:15;;;;;;;10.30;4.40;;;;;;;17.61;48.66;98616.80;105023;1262;62056;-40
2023/10/11 06:09:43;;;;;;;10.90;4.50;;;;;;;17.63;48.78;98620.38;105014;1259;62111;-40
2023/10/11 06:12:28;;;;;;;5.90;4.10;;;;;;;17.65;48.71;98621.70;105100;1258;76467;-40
2023/10/11 06:14:57;;;;;;;9.60;4.60;;;;;;;17.65;48.74;98610.80;105052;1262;66289;-41
2023/10/11 06:17:41;;;;;;;7.30;4.20;;;;;;;17.68;48.79;98617.02;105111;1260;72603;-42
2023/10/11 06:20:27;;;;;;;10.30;4.30;;;;;;;17.68;48.69;98625.02;104950;1259;61968;-41
2023/10/11 06:22:54;;;;;;;9.40;4.40;;;;;;;17.70;48.83;98628.27;104953;1260;62069;-41
2023/10/11 06:25:23;;;;;;;9.50;5.30;;;;;;;17.71;48.68;98628.93;104903;1260;75484;-41
2023/10/11 06:30:27;;;;;;;9.00;5.30;;;;;;;17.71;48.42;98624.30;104657;1262;73126;-41
2023/10/11 06:32:56;;;;;;;7.20;5.20;;;;;;;17.71;48.31;98620.19;104995;1262;62079;-41
2023/10/11 06:35:24;;;;;;;9.20;5.40;;;;;;;17.71;48.32;98625.23;105063;1262;63214;-44
2023/10/11 06:37:55;;;;;;;6.30;5.30;;;;;;;17.72;48.26;98624.02;106323;1262;74834;-42
2023/10/11 06:43:09;;;;;;;7.60;5.00;;;;;;;17.72;48.40;98625.05;105355;1261;72670;-43
2023/10/11 06:45:39;;;;;;;7.00;5.00;;;;;;;17.73;48.28;98620.96;105187;1262;62064;-41
2023/10/11 06:48:13;;;;;;;9.30;4.90;;;;;;;17.73;48.29;98620.03;105180;1258;62263;-40
2023/10/11 06:50:41;;;;;;;9.90;5.00;;;;;;;17.73;48.42;98623.74;105201;1259;74167;-40
2023/10/11 06:53:09;;;;;;;11.50;4.70;;;;;;;17.73;48.46;98623.59;105081;1262;65035;-44
2023/10/11 06:55:39;;;;;;;6.20;4.40;;;;;;;17.75;48.54;98629.24;105135;1259;73748;-41
2023/10/11 06:58:15;;;;;;;9.60;4.60;;;;;;;17.75;48.60;98627.49;105175;1262;62081;-41
2023/10/11 07:00:46;;;;;;;6.10;4.50;;;;;;;17.77;48.77;98633.13;104974;1262;62189;-40
2023/10/11 07:05:56;;;;;;;15.90;4.60;;;;;;;17.79;48.87;98632.30;105212;1262;66348;-40
2023/10/11 07:08:35;;;;;;;10.20;4.80;;;;;;;17.80;48.92;98628.48;105494;1262;71169;-41
2023/10/11 07:13:49;;;;;;;10.70;4.40;;;;;;;17.83;48.78;98627.66;105213;1260;62031;-41
2023/10/11 07:16:22;;;;;;;12.40;4.50;;;;;;;17.84;48.99;98627.80;105441;1262;75176;-41
2023/10/11 07:18:54;;;;;;;9.10;4.40;;;;;;;17.85;48.93;98626.58;105127;1262;66148;-40
2023/10/11 07:21:25;;;;;;;12.00;4.70;;;;;;;17.86;48.89;98635.11;105299;1260;73063;-41
2023/10/11 07:28:59;;;;;;;8.20;4.50;;;;;;;17.88;49.13;98629.02;105195;1259;74268;-41
2023/10/11 07:31:32;;;;;;;6.70;4.40;;;;;;;17.89;49.18;98636.14;105216;1262;63831;-39
2023/10/11 07:34:05;;;;;;;10.70;4.50;;;;;;;17.90;49.25;98637.10;105102;1260;72584;-39
2023/10/11 07:36:36;;;;;;;13.00;4.30;;;;;;;17.91;49.14;98630.46;105111;1260;62160;-42
2023/10/11 07:39:25;;;;;;;7.50;4.70;;;;;;;17.91;49.10;98630.71;105180;1259;62626;-40
2023/10/11 07:42:07;;;;;;;7.90;4.30;;;;;;;17.91;49.03;98630.92;106054;1260;75207;-42
2023/10/11 07:44:38;;;;;;;6.80;4.60;;;;;;;17.91;48.96;98630.08;105280;1262;65428;-40
2023/10/11 07:47:18;;;;;;;8.20;4.90;;;;;;;17.91;48.88;98627.14;105208;1262;71545;-40
2023/10/11 07:49:49;;;;;;;9.20;4.50;;;;;;;17.91;48.93;98627.20;105308;1262;62070;-41
2023/10/11 07:52:19;;;;;;;13.00;4.80;;;;;;;17.91;48.87;98625.13;105119;1262;62614;-40
2023/10/11 07:54:51;;;;;;;6.50;4.50;;;;;;;17.91;48.86;98623.88;105252;1262;75158;-40
2023/10/11 07:57:20;;;;;;;9.20;4.70;;;;;;;17.90;48.67;98621.70;105013;1262;65130;-39
2023/10/11 07:59:51;;;;;;;6.40;4.30;;;;;;;17.90;48.58;98613.88;105148;1260;71539;-39
2023/10/11 08:05:14;;;;;;;5.60;4.30;;;;;;;17.91;48.46;98610.73;106173;1268;62011;-39
2023/10/11 08:07:46;;;;;;;8.70;4.40;;;;;;;17.91;48.51;98609.98;104879;1262;74720;-40
2023/10/11 08:10:29;;;;;;;8.60;4.70;;;;;;;17.92;48.54;98607.38;106438;1262;66014;-39
2023/10/11 08:12:59;;;;;;;9.10;4.70;;;;;;;17.93;48.51;98605.48;105483;1262;72598;-39
2023/10/11 08:15:27;;;;;;;6.50;4.20;;;;;;;17.93;48.47;98607.81;105034;1263;62067;-40
2023/10/11 08:17:54;;;;;;;9.80;4.40;;;;;;;17.94;48.36;98607.05;105537;1262;62194;-41
2023/10/11 08:20:28;;;;;;;6.40;4.30;;;;;;;17.94;48.40;98602.48;105033;1259;75428;-40
2023/10/11 08:22:57;;;;;;;7.30;4.30;;;;;;;17.94;48.44;98592.29;105569;1262;65126;-39
2023/10/11 08:25:28;;;;;;;6.80;4.00;;;;;;;17.94;48.41;98592.45;105273;1260;72920;-39
2023/10/11 08:28:12;;;;;;;8.70;4.40;;;;;;;17.94;48.51;98591.52;105339;1262;62102;-41
2023/10/11 08:30:45;;;;;;;7.90;4.10;;;;;;;17.94;48.41;98592.76;105111;1260;62098;-39
2023/10/11 08:46:34;;;;;;;12.30;4.00;;;;;;;18.32;48.03;98589.45;102986;1280;613695;-38
2023/10/11 08:49:01;;;;;;;9.70;4.20;;;;;;;18.40;48.23;98590.64;104343;1274;202732;-38
2023/10/11 08:51:36;;;;;;;12.50;4.70;;;;;;;18.42;48.51;98592.35;104686;1264;60990;-39
2023/10/11 08:54:11;;;;;;;;;;;;;;;18.45;49.13;98593.73;104815;1267;72069;-37
2023/10/11 08:56:48;;;;;;;15.00;4.10;;;;;;;18.49;49.69;98594.87;105102;1269;66059;-37
2023/10/11 08:59:15;;;;;;;9.30;4.50;;;;;;;18.53;50.20;98597.05;104760;1269;71359;-37
2023/10/11 09:01:45;;;;;;;8.20;4.30;;;;;;;18.56;50.81;98590.30;104813;1270;59247;-38
2023/10/11 09:04:13;;;;;;;10.40;4.40;;;;;;;18.60;51.12;98585.86;104801;1269;59919;-37
2023/10/11 09:06:44;;;;;;;9.80;5.00;;;;;;;18.63;51.35;98585.05;104973;1270;73007;-38
2023/10/11 09:09:32;;;;;;;11.10;4.40;;;;;;;18.65;51.47;98584.16;104795;1267;65003;-38
2023/10/11 09:12:20;;;;;;;14.20;4.30;;;;;;;18.67;51.66;98578.79;104793;1265;73283;-39
2023/10/11 09:15:00;;;;;;;10.00;4.40;;;;;;;18.69;51.83;98576.52;104684;1269;59733;-38
2023/10/11 09:17:27;;;;;;;11.00;4.40;;;;;;;18.70;51.93;98575.34;104813;1264;59668;-38
2023/10/11 09:19:59;;;;;;;12.50;4.40;;;;;;;18.72;51.88;98579.70;104761;1269;73366;-36
2023/10/11 09:22:28;;;;;;;11.10;4.40;;;;;;;18.73;51.84;98575.93;104854;1264;66217;-37
2023/10/11 09:25:04;;;;;;;8.00;4.10;;;;;;;18.75;51.74;98574.52;104839;1264;72451;-36
2023/10/11 09:27:48;;;;;;;7.70;3.70;;;;;;;18.76;51.95;98581.09;104749;1268;60827;-36
2023/10/11 09:30:19;;;;;;;6.50;3.80;;;;;;;18.76;52.08;98576.30;104725;1269;60167;-37
2023/10/11 09:32:53;;;;;;;5.50;3.70;;;;;;;18.78;51.84;98569.52;105051;1267;72899;-35
2023/10/11 09:35:28;;;;;;;5.10;3.90;;;;;;;18.78;52.09;98566.29;105108;1266;65179;-36
2023/10/11 09:37:58;;;;;;;7.80;4.40;;;;;;;18.79;52.04;98565.40;105008;1265;71858;-37
2023/10/11 09:40:36;;;;;;;7.20;4.00;;;;;;;18.79;51.93;98558.11;105051;1265;61105;-36
2023/10/11 09:43:04;;;;;;;8.80;3.70;;;;;;;18.80;52.17;98555.89;104954;1266;60232;-38
2023/10/11 09:45:47;;;;;;;9.30;4.00;;;;;;;18.81;52.10;98555.38;105193;1260;71743;-35
2023/10/11 09:48:17;;;;;;;8.70;3.80;;;;;;;18.82;52.26;98554.48;104999;1263;67455;-36
2023/10/11 09:50:58;;;;;;;9.20;3.80;;;;;;;18.83;52.10;98553.36;105159;1260;73304;-35
2023/10/11 09:53:30;;;;;;;4.70;3.60;;;;;;;18.84;52.20;98550.83;105932;1257;60985;31
2023/10/11 09:56:04;;;;;;;4.70;3.30;;;;;;;18.84;52.14;98548.84;104613;1268;61485;-40
2023/10/11 09:58:35;;;;;;;8.90;3.80;;;;;;;18.85;51.96;98543.77;104793;1268;73814;-37
2023/10/11 10:01:18;;;;;;;6.30;3.40;;;;;;;18.85;51.79;98539.65;104516;1274;66280;-40
2023/10/11 10:03:46;;;;;;;7.20;4.00;;;;;;;18.85;51.88;98534.82;104481;1267;73435;-39
2023/10/11 10:06:19;;;;;;;6.10;3.80;;;;;;;18.85;51.76;98534.58;104611;1271;60041;-39
2023/10/11 10:09:24;;;;;;;8.10;4.10;;;;;;;18.83;51.61;98528.27;104704;1267;60311;-39
2023/10/11 10:12:11;;;;;;;6.30;3.70;;;;;;;18.83;51.56;98527.02;104714;1267;72954;-39
2023/10/11 10:14:38;;;;;;;6.00;4.00;;;;;;;18.83;51.55;98523.89;104902;1271;67231;-39
2023/10/11 10:17:13;;;;;;;9.90;3.90;;;;;;;18.84;51.46;98520.98;104719;1271;72711;-39
2023/10/11 10:19:43;;;;;;;9.10;3.60;;;;;;;18.83;51.36;98517.38;104794;1266;61081;-39
2023/10/11 10:23:12;;;;;;;6.40;3.60;;;;;;;18.83;51.28;98511.95;104824;1268;59670;-38
2023/10/11 10:26:19;;;;;;;7.20;3.60;;;;;;;18.81;51.15;98511.36;104469;1266;71940;-38
2023/10/11 10:28:46;;;;;;;7.50;3.60;;;;;;;18.81;51.11;98507.52;104599;1271;67199;-41
2023/10/11 10:31:17;;;;;;;6.40;3.40;;;;;;;18.80;51.02;98502.46;104558;1267;73551;-43
2023/10/11 10:33:49;;;;;;;7.20;3.50;;;;;;;18.80;51.00;98496.55;104657;1271;60102;-37
2023/10/11 10:36:28;;;;;;;5.30;3.30;;;;;;;18.79;50.82;98493.27;104726;1267;59716;-39
2023/10/11 10:39:10;;;;;;;5.70;3.70;;;;;;;18.78;50.83;98488.27;104683;1267;73004;-38
2023/10/11 10:41:41;;;;;;;5.60;3.10;;;;;;;18.77;50.78;98483.25;104964;1267;66430;-40
2023/10/11 10:44:12;;;;;;;6.20;3.30;;;;;;;18.76;50.64;98478.13;104387;1267;71316;-39
2023/10/11 10:46:49;;;;;;;5.60;3.20;;;;;;;18.76;50.76;98478.13;104877;1268;59629;-38
2023/10/11 10:49:19;;;;;;;5.40;3.20;;;;;;;18.76;50.88;98475.64;104388;1271;60115;-41
2023/10/11 10:51:49;;;;;;;6.70;3.50;;;;;;;18.76;51.09;98477.10;104725;1267;72727;-39
2023/10/11 10:54:23;;;;;;;5.40;3.50;;;;;;;18.77;51.07;98473.73;104511;1273;66092;-40
2023/10/11 10:56:58;;;;;;;12.80;3.70;;;;;;;18.77;51.17;98475.54;104671;1267;73911;-38
2023/10/11 10:59:27;;;;;;;5.50;3.30;;;;;;;18.78;51.27;98467.96;104661;1271;59744;-38
2023/10/11 11:01:54;;;;;;;8.20;3.40;;;;;;;18.79;51.27;98465.45;104602;1271;60168;-39
2023/10/11 11:04:28;;;;;;;5.20;3.20;;;;;;;18.80;51.28;98463.06;104405;1267;73951;-39
2023/10/11 11:06:55;;;;;;;5.30;3.40;;;;;;;18.80;51.39;98464.94;104632;1267;66424;-37
2023/10/11 11:09:29;;;;;;;7.00;3.40;;;;;;;18.81;51.36;98468.67;104491;1267;72506;-38
2023/10/11 11:12:14;;;;;;;5.60;3.00;;;;;;;18.80;51.38;98465.10;104929;1271;60452;-38
2023/10/11 11:14:54;;;;;;;4.70;3.20;;;;;;;18.80;51.40;98463.86;104986;1265;59558;-39
2023/10/11 11:17:50;;;;;;;4.10;3.00;;;;;;;18.80;51.42;98465.93;105427;1262;72016;-38
2023/10/11 11:22:48;;;;;;;4.90;2.80;;;;;;;18.78;51.37;98456.24;108550;1262;72928;-40
2023/10/11 11:28:18;;;;;;;5.10;3.30;;;;;;;18.78;51.32;98450.34;104883;1267;59578;-41
2023/10/11 11:30:50;;;;;;;5.70;3.00;;;;;;;18.76;51.22;98449.15;104825;1267;73650;-39
2023/10/11 11:33:28;;;;;;;3.80;2.80;;;;;;;18.75;51.22;98447.77;104866;1265;65994;-40
2023/10/11 11:35:55;;;;;;;5.40;2.90;;;;;;;18.74;50.97;98446.20;108514;1262;72648;-39
2023/10/11 11:38:22;;;;;;;3.90;2.90;;;;;;;18.73;51.07;98445.21;106469;1262;59746;-38
2023/10/11 11:40:51;;;;;;;3.80;2.90;;;;;;;18.73;51.06;98445.27;104923;1263;59621;-38
2023/10/11 11:43:20;;;;;;;4.30;2.70;;;;;;;18.72;50.97;98439.13;104746;1266;71998;-39
2023/10/11 11:45:47;;;;;;;4.20;2.90;;;;;;;18.72;50.94;98439.98;104862;1266;65190;-37
2023/10/11 11:48:14;;;;;;;5.60;3.30;;;;;;;18.71;50.88;98439.33;104957;1263;73907;-39
2023/10/11 11:50:41;;;;;;;6.90;3.20;;;;;;;18.70;50.85;98438.91;104826;1268;60602;-39
2023/10/11 11:53:08;;;;;;;5.00;3.60;;;;;;;18.69;50.94;98434.55;105061;1265;59628;-38
2023/10/11 11:55:36;;;;;;;7.40;3.90;;;;;;;18.69;50.84;98434.30;105001;1268;72835;-40
2023/10/11 11:58:10;;;;;;;8.00;4.60;;;;;;;18.69;50.82;98436.15;104868;1265;65300;-38
2023/10/11 12:00:45;;;;;;;9.00;4.00;;;;;;;18.67;50.79;98432.46;104872;1262;71979;-39
2023/10/11 12:03:12;;;;;;;9.60;4.40;;;;;;;18.67;50.72;98427.88;104949;1265;59740;-39
2023/10/11 12:05:42;;;;;;;7.70;4.10;;;;;;;18.66;50.57;98428.39;104751;1263;59559;-39
2023/10/11 12:08:18;;;;;;;6.90;4.20;;;;;;;18.66;50.35;98426.13;104951;1263;72892;-38
2023/10/11 12:10:47;;;;;;;11.40;4.10;;;;;;;18.65;50.31;98426.48;104949;1267;66175;-38
2023/10/11 12:13:23;;;;;;;13.60;4.60;;;;;;;18.64;50.29;98428.82;104971;1266;72561;-40
2023/10/11 12:15:55;;;;;;;9.70;4.40;;;;;;;18.63;50.17;98424.36;104892;1268;59655;-41
2023/10/11 12:18:34;;;;;;;9.10;4.50;;;;;;;18.61;49.98;98424.25;104855;1263;60242;-40
2023/10/11 12:21:10;;;;;;;8.30;4.40;;;;;;;18.60;49.81;98419.59;104882;1263;73623;-39
2023/10/11 12:23:45;;;;;;;9.20;4.00;;;;;;;18.58;49.93;98418.09;104938;1268;66818;-40
2023/10/11 12:26:19;;;;;;;7.60;4.00;;;;;;;18.57;50.03;98416.71;105071;1267;73507;-40
2023/10/11 12:28:45;;;;;;;9.50;4.20;;;;;;;18.57;50.20;98419.42;104926;1263;60196;-41
2023/10/11 12:31:44;;;;;;;9.50;4.30;;;;;;;18.56;50.12;98416.67;104935;1265;61370;-41
2023/10/11 12:34:11;;;;;;;9.40;4.40;;;;;;;18.56;50.14;98413.98;104954;1262;72980;-41
2023/10/11 12:36:46;;;;;;;8.30;4.40;;;;;;;18.55;50.15;98408.11;104986;1266;67698;-41
2023/10/11 12:39:25;;;;;;;7.80;4.10;;;;;;;18.54;50.07;98408.09;105012;1265;73563;-39
2023/10/11 12:41:55;;;;;;;8.80;4.60;;;;;;;18.54;50.12;98403.96;104915;1267;59832;-39
2023/10/11 12:44:22;;;;;;;9.50;4.20;;;;;;;18.53;50.11;98401.53;104860;1265;61621;-39
2023/10/11 12:46:50;;;;;;;8.70;4.30;;;;;;;18.52;50.11;98390.96;104913;1263;72884;-39
2023/10/11 12:49:17;;;;;;;6.50;4.20;;;;;;;18.52;50.05;98387.15;105162;1266;65149;-39
2023/10/11 12:51:47;;;;;;;7.40;4.10;;;;;;;18.51;50.21;98384.03;105263;1262;73837;-40
2023/10/11 12:54:19;;;;;;;7.40;4.20;;;;;;;18.50;50.15;98382.23;104788;1262;60320;-40
2023/10/11 12:56:46;;;;;;;9.10;4.40;;;;;;;18.50;50.19;98378.73;105019;1265;60934;-40
2023/10/11 12:59:13;;;;;;;6.50;4.00;;;;;;;18.50;50.19;98382.98;104917;1263;74077;-40
2023/10/11 13:01:42;;;;;;;7.10;3.80;;;;;;;18.50;50.35;98384.60;104891;1264;66983;-40
2023/10/11 13:04:10;;;;;;;9.80;3.90;;;;;;;18.50;50.28;98383.90;105154;1263;73189;-41
2023/10/11 13:06:38;;;;;;;11.60;4.30;;;;;;;18.49;50.36;98384.87;105493;1265;60892;-40
2023/10/11 13:09:15;;;;;;;8.00;4.10;;;;;;;18.49;50.35;98386.66;106221;1265;60451;-41
2023/10/11 13:11:44;;;;;;;8.50;4.50;;;;;;;18.49;50.46;98384.34;105243;1262;73899;-40
2023/10/11 13:14:20;;;;;;;8.70;3.80;;;;;;;18.49;50.43;98388.29;104954;1265;66251;-41
2023/10/11 13:16:51;;;;;;;7.90;4.20;;;;;;;18.49;50.51;98386.44;104881;1262;73241;-40
2023/10/11 13:19:19;;;;;;;8.80;4.00;;;;;;;18.50;50.51;98380.27;104879;1262;60439;-43
2023/10/11 13:21:50;;;;;;;7.70;3.80;;;;;;;18.50;50.43;98376.19;105017;1263;60428;-42
2023/10/11 13:24:22;;;;;;;8.70;4.10;;;;;;;18.52;50.35;98370.97;108759;1262;73439;-39